createdAt,value
2018-12-22T00:02:12.145Z,105.70
2018-12-22T00:04:40.314Z,112.10
2018-12-22T00:07:08.328Z,82.55
2018-12-22T00:09:36.603Z,69.30
2018-12-22T00:12:04.624Z,73.17
2018-12-22T00:14:32.683Z,79.17
2018-12-22T00:17:00.762Z,69.10
2018-12-22T00:19:28.895Z,68.52
2018-12-22T00:21:57.032Z,67.87
2018-12-22T00:24:25.096Z,64.17
2018-12-22T00:26:53.142Z,61.90
2018-12-22T00:29:21.362Z,60.38
2018-12-22T00:31:49.629Z,63.80
2018-12-22T00:34:17.851Z,68.78
2018-12-22T00:36:46.064Z,65.08
2018-12-22T00:39:14.190Z,62.73
2018-12-22T00:41:42.292Z,65.45
2018-12-22T00:44:10.584Z,61.33
2018-12-22T00:46:38.649Z,62.78
2018-12-22T00:49:06.665Z,59.08
2018-12-22T00:51:34.673Z,61.40
2018-12-22T00:54:02.962Z,58.65
2018-12-22T00:56:31.181Z,61.83
2018-12-22T00:58:59.535Z,62.08
2018-12-22T01:01:27.622Z,60.78
2018-12-22T01:03:55.888Z,60.75
2018-12-22T01:06:23.945Z,60.80
2018-12-22T01:08:51.845Z,57.10
2018-12-22T01:11:20.028Z,56.33
2018-12-22T01:13:48.220Z,55.03
2018-12-22T01:16:16.286Z,56.00
2018-12-22T01:18:44.412Z,55.63
2018-12-22T01:21:12.504Z,67.70
2018-12-22T01:23:40.599Z,52.05
2018-12-22T01:26:08.659Z,50.80
2018-12-22T01:28:39.476Z,54.33
2018-12-22T01:31:07.065Z,45.28
2018-12-22T01:33:35.308Z,55.80
2018-12-22T01:36:03.383Z,51.05
2018-12-22T01:38:31.625Z,54.25
2018-12-22T01:40:59.645Z,51.30
2018-12-22T01:43:27.714Z,52.00
2018-12-22T01:45:55.823Z,51.53
2018-12-22T01:48:23.769Z,53.83
2018-12-22T01:50:51.759Z,57.83
2018-12-22T01:53:19.704Z,53.25
2018-12-22T01:55:47.789Z,49.65
2018-12-22T01:58:16.080Z,47.58
2018-12-22T02:00:44.345Z,46.90
2018-12-22T02:03:12.565Z,46.55
2018-12-22T02:05:40.556Z,50.50
2018-12-22T02:08:08.760Z,55.55
2018-12-22T02:10:37.025Z,51.30
2018-12-22T02:13:05.121Z,51.63
2018-12-22T02:15:33.318Z,48.35
2018-12-22T02:18:01.484Z,48.05
2018-12-22T02:20:29.679Z,51.92
2018-12-22T02:22:57.877Z,51.42
2018-12-22T02:25:25.945Z,46.05
2018-12-22T02:27:54.021Z,45.60
2018-12-22T02:30:22.080Z,47.50
2018-12-22T02:32:50.288Z,46.18
2018-12-22T02:35:18.349Z,48.25
2018-12-22T02:37:46.536Z,44.25
2018-12-22T02:40:14.818Z,43.15
2018-12-22T02:42:42.881Z,43.80
2018-12-22T02:45:10.820Z,45.23
2018-12-22T02:47:38.876Z,43.83
2018-12-22T02:50:07.395Z,42.78
2018-12-22T02:52:35.662Z,42.98
2018-12-22T02:55:03.847Z,43.33
2018-12-22T02:57:32.053Z,42.93
2018-12-22T03:00:00.178Z,43.45
2018-12-22T03:02:28.294Z,45.40
2018-12-22T03:04:56.528Z,40.43
2018-12-22T03:07:24.633Z,49.40
2018-12-22T03:09:52.752Z,48.02
2018-12-22T03:12:20.974Z,49.35
2018-12-22T03:14:49.217Z,47.08
2018-12-22T03:17:17.513Z,47.70
2018-12-22T03:19:45.684Z,45.15
2018-12-22T03:22:13.633Z,48.05
2018-12-22T03:24:41.872Z,47.13
2018-12-22T03:27:09.891Z,45.92
2018-12-22T03:29:38.057Z,44.95
2018-12-22T03:32:06.228Z,48.60
2018-12-22T03:34:34.270Z,45.92
2018-12-22T03:37:02.470Z,49.20
2018-12-22T03:39:30.737Z,45.55
2018-12-22T03:41:58.811Z,54.85
2018-12-22T03:44:26.829Z,52.35
2018-12-22T03:46:54.702Z,46.80
2018-12-22T03:49:22.973Z,50.00
2018-12-22T03:51:51.307Z,53.48
2018-12-22T03:54:19.552Z,50.55
2018-12-22T03:56:47.656Z,50.28
2018-12-22T03:59:24.541Z,45.15
2018-12-22T04:01:46.052Z,46.02
2018-12-22T04:04:14.137Z,44.65
2018-12-22T04:06:42.314Z,52.10
2018-12-22T04:09:10.378Z,52.23
2018-12-22T04:11:38.580Z,49.80
2018-12-22T04:14:06.771Z,47.65
2018-12-22T04:16:34.868Z,48.13
2018-12-22T04:19:02.776Z,43.98
2018-12-22T04:21:30.807Z,46.53
2018-12-22T04:23:58.926Z,47.60
2018-12-22T04:26:27.169Z,43.70
2018-12-22T04:28:55.434Z,45.55
2018-12-22T04:31:23.532Z,48.85
2018-12-22T04:33:51.773Z,47.62
2018-12-22T04:36:19.991Z,46.60
2018-12-22T04:38:48.114Z,48.63
2018-12-22T04:41:16.292Z,49.48
2018-12-22T04:43:44.552Z,52.08
2018-12-22T04:46:12.640Z,50.08
2018-12-22T04:48:40.689Z,49.58
2018-12-22T04:51:08.912Z,53.38
2018-12-22T04:53:37.013Z,50.08
2018-12-22T04:56:05.104Z,50.83
2018-12-22T04:58:33.374Z,50.55
2018-12-22T05:01:01.589Z,52.05
2018-12-22T05:03:29.800Z,52.08
2018-12-22T05:05:57.753Z,51.73
2018-12-22T05:08:25.776Z,49.98
2018-12-22T05:10:53.766Z,50.70
2018-12-22T05:13:22.041Z,49.77
2018-12-22T05:15:50.362Z,52.33
2018-12-22T05:18:18.338Z,51.40
2018-12-22T05:20:46.600Z,52.15
2018-12-22T05:23:14.720Z,50.15
2018-12-22T05:25:42.983Z,50.20
2018-12-22T05:28:11.188Z,51.33
2018-12-22T05:30:39.400Z,56.25
2018-12-22T05:33:07.600Z,52.20
2018-12-22T05:35:35.820Z,49.40
2018-12-22T05:38:03.843Z,48.75
2018-12-22T05:40:31.958Z,49.60
2018-12-22T05:43:00.010Z,54.77
2018-12-22T05:45:28.245Z,49.58
2018-12-22T05:47:56.264Z,48.45
2018-12-22T05:50:24.356Z,58.30
2018-12-22T05:52:52.456Z,59.03
2018-12-22T05:55:20.676Z,54.10
2018-12-22T05:57:48.896Z,54.85
2018-12-22T06:00:17.016Z,52.55
2018-12-22T06:02:45.235Z,50.28
2018-12-22T06:05:13.268Z,57.13
2018-12-22T06:07:41.515Z,48.05
2018-12-22T06:10:09.612Z,50.10
2018-12-22T06:12:37.757Z,58.15
2018-12-22T06:15:06.356Z,50.78
2018-12-22T06:17:34.603Z,48.85
2018-12-22T06:20:02.795Z,45.67
2018-12-22T06:22:30.894Z,54.58
2018-12-22T06:24:58.913Z,52.95
2018-12-22T06:27:27.133Z,61.77
2018-12-22T06:29:55.365Z,118.28
2018-12-22T06:32:24.885Z,94.15
2018-12-22T06:34:53.057Z,86.25
2018-12-22T06:37:21.152Z,67.67
2018-12-22T06:39:49.251Z,58.60
2018-12-22T06:42:17.495Z,51.37
2018-12-22T06:44:45.532Z,51.85
2018-12-22T06:47:13.456Z,76.42
2018-12-22T06:49:41.403Z,66.12
2018-12-22T06:52:09.596Z,66.47
2018-12-22T06:54:37.509Z,67.40
2018-12-22T06:57:05.540Z,67.75
2018-12-22T06:59:33.704Z,69.15
2018-12-22T07:02:01.844Z,75.83
2018-12-22T07:04:30.012Z,74.60
2018-12-22T07:06:58.344Z,63.80
2018-12-22T07:09:26.460Z,56.63
2018-12-22T07:11:54.782Z,53.10
2018-12-22T07:14:23.079Z,49.40
2018-12-22T07:16:51.135Z,66.47
2018-12-22T07:19:19.284Z,75.83
2018-12-22T07:21:47.224Z,75.30
2018-12-22T07:24:15.405Z,72.08
2018-12-22T07:26:43.869Z,72.27
2018-12-22T07:29:12.021Z,163.90
2018-12-22T07:31:40.044Z,34.67
2018-12-22T07:34:08.242Z,29.10
2018-12-22T07:36:36.580Z,35.33
2018-12-22T07:39:06.002Z,42.80
2018-12-22T07:41:34.022Z,51.17
2018-12-22T07:44:02.960Z,32.73
2018-12-22T07:46:31.063Z,35.77
2018-12-22T07:48:59.385Z,37.53
2018-12-22T07:51:27.648Z,50.27
2018-12-22T07:53:55.668Z,52.30
2018-12-22T07:56:23.910Z,53.57
2018-12-22T07:58:52.087Z,121.63
2018-12-22T08:01:20.161Z,106.17
2018-12-22T08:03:48.202Z,84.27
2018-12-22T08:06:16.522Z,68.30
2018-12-22T08:08:44.743Z,63.30
2018-12-22T08:11:12.708Z,61.37
2018-12-22T08:13:40.830Z,120.07
2018-12-22T08:16:09.001Z,105.00
2018-12-22T08:18:37.221Z,90.13
2018-12-22T08:21:05.484Z,75.17
2018-12-22T08:23:33.692Z,71.00
2018-12-22T08:26:01.980Z,65.77
2018-12-22T08:28:30.002Z,81.87
2018-12-22T08:30:58.219Z,82.10
2018-12-22T08:33:26.439Z,70.70
2018-12-22T08:35:54.504Z,59.73
2018-12-22T08:38:22.560Z,64.30
2018-12-22T08:40:50.544Z,64.13
2018-12-22T08:43:18.718Z,59.47
2018-12-22T08:45:46.800Z,60.80
2018-12-22T08:48:15.006Z,62.07
2018-12-22T08:50:43.148Z,63.97
2018-12-22T08:53:11.320Z,71.07
2018-12-22T08:55:39.616Z,79.60
2018-12-22T08:58:07.836Z,83.87
2018-12-22T09:00:35.914Z,74.20
2018-12-22T09:03:03.920Z,74.40
2018-12-22T09:05:32.018Z,72.80
2018-12-22T09:08:00.140Z,78.83
2018-12-22T09:10:28.333Z,75.63
2018-12-22T09:12:56.457Z,68.70
2018-12-22T09:15:24.524Z,83.30
2018-12-22T09:17:52.636Z,85.13
2018-12-22T09:20:20.804Z,81.20
2018-12-22T09:22:48.864Z,79.17
2018-12-22T09:25:17.004Z,86.97
2018-12-22T09:27:45.171Z,92.27
2018-12-22T09:30:13.612Z,85.53
2018-12-22T09:32:41.752Z,80.90
2018-12-22T09:35:10.131Z,70.40
2018-12-22T09:37:38.352Z,64.40
2018-12-22T09:40:06.800Z,66.53
2018-12-22T09:42:35.093Z,66.30
2018-12-22T09:45:04.254Z,64.43
2018-12-22T09:47:32.491Z,75.13
2018-12-22T09:50:00.765Z,68.70
2018-12-22T09:52:29.090Z,62.27
2018-12-22T09:54:57.133Z,60.47
2018-12-22T09:57:25.093Z,67.50
2018-12-22T09:59:53.164Z,70.53
2018-12-22T10:02:21.231Z,72.27
2018-12-22T10:04:49.456Z,70.67
2018-12-22T10:07:17.702Z,74.30
2018-12-22T10:09:45.764Z,84.17
2018-12-22T10:12:13.955Z,81.83
2018-12-22T10:14:42.263Z,85.23
2018-12-22T10:17:10.185Z,91.30
2018-12-22T10:19:38.300Z,90.43
2018-12-22T10:22:06.364Z,93.90
2018-12-22T10:24:34.547Z,98.80
2018-12-22T10:27:02.805Z,89.83
2018-12-22T10:29:30.978Z,90.40
2018-12-22T10:31:59.143Z,93.50
2018-12-22T10:34:27.317Z,94.80
2018-12-22T10:36:55.316Z,102.23
2018-12-22T10:39:23.379Z,93.70
2018-12-22T10:41:51.475Z,97.07
2018-12-22T10:44:19.741Z,92.63
2018-12-22T10:46:47.935Z,67.10
2018-12-22T10:49:16.164Z,75.77
2018-12-22T10:51:44.301Z,86.00
2018-12-22T10:54:12.451Z,85.80
2018-12-22T10:56:40.456Z,88.07
2018-12-22T10:59:08.484Z,53.93
2018-12-22T11:01:36.636Z,58.40
2018-12-22T11:04:04.853Z,56.20
2018-12-22T11:06:32.916Z,60.80
2018-12-22T11:09:01.116Z,74.73
2018-12-22T11:11:29.332Z,68.97
2018-12-22T11:13:57.533Z,63.70
2018-12-22T11:16:25.796Z,67.83
2018-12-22T11:18:53.852Z,61.63
2018-12-22T11:21:22.007Z,52.60
2018-12-22T11:23:50.212Z,126.97
2018-12-22T11:26:18.472Z,53.60
2018-12-22T11:28:46.652Z,48.90
2018-12-22T11:31:14.536Z,51.33
2018-12-22T11:33:42.574Z,42.83
2018-12-22T11:36:10.844Z,38.27
2018-12-22T11:38:38.929Z,51.77
2018-12-22T11:41:07.050Z,48.97
2018-12-22T11:43:35.075Z,61.23
2018-12-22T11:46:03.389Z,74.83
2018-12-22T11:48:52.889Z,74.63
2018-12-22T11:51:21.020Z,119.20
2018-12-22T11:53:49.119Z,394.57
2018-12-22T11:56:17.343Z,363.93
2018-12-22T11:58:45.460Z,194.03
2018-12-22T12:01:14.489Z,190.97
2018-12-22T12:03:42.704Z,276.30
2018-12-22T12:06:10.900Z,407.63
2018-12-22T12:08:39.144Z,167.70
2018-12-22T12:11:07.264Z,162.47
2018-12-22T12:13:35.532Z,205.30
2018-12-22T12:16:12.865Z,125.77
2018-12-22T12:18:44.036Z,170.10
2018-12-22T12:21:12.293Z,129.13
2018-12-22T12:23:40.567Z,113.87
2018-12-22T12:26:08.761Z,106.63
2018-12-22T12:28:36.691Z,142.87
2018-12-22T12:31:04.848Z,99.03
2018-12-22T12:33:32.750Z,191.57
2018-12-22T12:36:00.932Z,132.93
2018-12-22T12:38:28.992Z,173.03
2018-12-22T12:40:57.244Z,278.40
2018-12-22T12:43:25.413Z,302.10
2018-12-22T12:45:53.618Z,224.20
2018-12-22T12:48:23.056Z,116.87
2018-12-22T12:50:51.174Z,193.77
2018-12-22T12:53:19.231Z,142.93
2018-12-22T12:55:47.392Z,171.80
2018-12-22T12:58:15.584Z,118.50
2018-12-22T13:00:43.647Z,117.20
2018-12-22T13:03:11.768Z,92.83
2018-12-22T13:05:39.944Z,86.03
2018-12-22T13:08:07.965Z,89.47
2018-12-22T13:10:36.248Z,93.17
2018-12-22T13:13:21.664Z,120.77
2018-12-22T13:15:49.608Z,99.40
2018-12-22T13:18:17.803Z,179.03
2018-12-22T13:20:46.055Z,92.33
2018-12-22T13:23:14.216Z,213.63
2018-12-22T13:25:42.345Z,116.60
2018-12-22T13:28:10.383Z,79.40
2018-12-22T13:30:38.404Z,115.10
2018-12-22T13:33:07.043Z,130.60
2018-12-22T13:35:35.287Z,128.33
2018-12-22T13:38:03.240Z,90.87
2018-12-22T13:40:31.255Z,138.27
2018-12-22T13:42:59.401Z,105.97
2018-12-22T13:45:27.902Z,91.43
2018-12-22T13:47:56.088Z,97.77
2018-12-22T13:50:24.162Z,123.23
2018-12-22T13:52:52.582Z,116.27
2018-12-22T13:55:20.824Z,127.73
2018-12-22T13:57:49.004Z,145.30
2018-12-22T14:00:17.284Z,144.50
2018-12-22T14:02:45.516Z,132.73
2018-12-22T14:05:15.712Z,125.60
2018-12-22T14:07:43.807Z,142.10
2018-12-22T14:10:11.873Z,138.73
2018-12-22T14:12:40.178Z,121.97
2018-12-22T14:15:10.116Z,106.60
2018-12-22T14:17:42.407Z,103.77
2018-12-22T14:20:12.280Z,111.17
2018-12-22T14:22:40.400Z,107.57
2018-12-22T14:25:10.577Z,112.17
2018-12-22T14:27:38.852Z,106.53
2018-12-22T14:30:08.724Z,108.77
2018-12-22T14:32:37.046Z,188.97
2018-12-22T14:35:11.286Z,149.17
2018-12-22T14:37:39.557Z,127.10
2018-12-22T14:40:08.355Z,117.77
2018-12-22T14:42:36.652Z,114.20
2018-12-22T14:45:04.917Z,95.43
2018-12-22T14:47:33.037Z,91.83
2018-12-22T14:50:01.242Z,97.50
2018-12-22T14:52:29.530Z,142.47
2018-12-22T14:54:57.692Z,120.77
2018-12-22T14:57:26.201Z,127.03
2018-12-22T14:59:54.491Z,140.23
2018-12-22T15:02:22.612Z,183.60
2018-12-22T15:04:50.672Z,204.70
2018-12-22T15:07:18.884Z,270.30
2018-12-22T15:09:47.116Z,209.17
2018-12-22T15:12:15.316Z,288.20
2018-12-22T15:14:43.331Z,342.17
2018-12-22T15:17:11.624Z,426.60
2018-12-22T15:19:40.149Z,228.20
2018-12-22T15:22:08.389Z,213.37
2018-12-22T15:24:36.474Z,258.30
2018-12-22T15:27:04.580Z,326.00
2018-12-22T15:29:32.756Z,293.90
2018-12-22T15:32:00.872Z,159.40
2018-12-22T15:34:28.839Z,132.93
2018-12-22T15:36:57.057Z,150.00
2018-12-22T15:39:25.211Z,333.57
2018-12-22T15:41:53.273Z,263.57
2018-12-22T15:44:21.457Z,306.87
2018-12-22T15:46:49.428Z,303.83
2018-12-22T15:49:18.332Z,323.27
2018-12-22T15:51:46.453Z,211.37
2018-12-22T15:54:14.612Z,266.53
2018-12-22T15:56:42.588Z,211.33
2018-12-22T15:59:10.797Z,186.17
2018-12-22T16:01:39.014Z,160.97
2018-12-22T16:04:07.184Z,156.17
2018-12-22T16:06:35.424Z,131.10
2018-12-22T16:09:05.244Z,139.13
2018-12-22T16:11:33.421Z,134.50
2018-12-22T16:14:01.621Z,140.70
2018-12-22T16:16:29.910Z,137.27
2018-12-22T16:18:58.032Z,182.03
2018-12-22T16:21:26.153Z,210.80
2018-12-22T16:23:54.312Z,174.57
2018-12-22T16:26:22.339Z,140.90
2018-12-22T16:28:53.720Z,124.37
2018-12-22T16:31:21.944Z,148.03
2018-12-22T16:33:50.209Z,308.07
2018-12-22T16:36:18.528Z,283.37
2018-12-22T16:38:46.724Z,191.70
2018-12-22T16:41:14.921Z,159.57
2018-12-22T16:43:43.139Z,141.17
2018-12-22T16:46:11.299Z,130.40
2018-12-22T16:48:39.869Z,149.33
2018-12-22T16:51:07.921Z,138.03
2018-12-22T16:53:36.019Z,198.30
2018-12-22T16:56:04.240Z,149.87
2018-12-22T16:58:35.589Z,146.30
2018-12-22T17:01:09.309Z,144.63
2018-12-22T17:03:37.497Z,198.57
2018-12-22T17:06:06.876Z,151.90
2018-12-22T17:08:35.179Z,169.63
2018-12-22T17:11:03.995Z,158.03
2018-12-22T17:13:32.165Z,153.47
2018-12-22T17:16:00.937Z,159.30
2018-12-22T17:18:29.533Z,169.33
2018-12-22T17:21:01.883Z,150.80
2018-12-22T17:24:04.032Z,252.27
2018-12-22T17:26:33.322Z,166.13
2018-12-22T17:29:01.584Z,142.77
2018-12-22T17:31:29.896Z,134.97
2018-12-22T17:33:58.116Z,134.67
2018-12-22T17:36:26.364Z,118.83
2018-12-22T17:38:54.656Z,117.40
2018-12-22T17:41:22.821Z,103.77
2018-12-22T17:43:50.855Z,110.97
2018-12-22T17:46:19.015Z,87.90
2018-12-22T17:48:47.335Z,105.57
2018-12-22T17:51:15.542Z,128.43
2018-12-22T17:53:43.676Z,145.70
2018-12-22T17:56:11.896Z,109.47
2018-12-22T17:58:40.216Z,106.37
2018-12-22T18:01:08.280Z,104.20
2018-12-22T18:03:37.704Z,114.20
2018-12-22T18:06:05.864Z,132.47
2018-12-22T18:08:33.912Z,146.90
2018-12-22T18:11:02.019Z,123.37
2018-12-22T18:13:30.185Z,108.30
2018-12-22T18:15:58.388Z,109.50
2018-12-22T18:18:26.578Z,98.63
2018-12-22T18:20:54.800Z,98.50
2018-12-22T18:23:22.965Z,100.47
2018-12-22T18:25:51.084Z,106.90
2018-12-22T18:28:19.382Z,155.20
2018-12-22T18:30:47.625Z,202.43
2018-12-22T18:33:15.801Z,164.17
2018-12-22T18:35:44.065Z,114.93
2018-12-22T18:38:12.180Z,124.40
2018-12-22T18:40:40.360Z,121.57
2018-12-22T18:43:08.388Z,132.63
2018-12-22T18:45:36.641Z,135.87
2018-12-22T18:48:04.861Z,130.73
2018-12-22T18:50:32.792Z,129.43
2018-12-22T18:53:00.967Z,127.37
2018-12-22T18:55:29.074Z,128.47
2018-12-22T18:57:57.982Z,125.00
2018-12-22T19:00:26.115Z,128.37
2018-12-22T19:02:54.390Z,108.20
2018-12-22T19:05:23.223Z,108.17
2018-12-22T19:07:52.392Z,142.47
2018-12-22T19:10:23.411Z,187.70
2018-12-22T19:12:51.734Z,130.03
2018-12-22T19:15:19.902Z,136.27
2018-12-22T19:17:47.941Z,157.30
2018-12-22T19:20:18.601Z,133.73
2018-12-22T19:22:46.840Z,97.67
2018-12-22T19:25:15.039Z,238.20
2018-12-22T19:27:43.104Z,344.40
2018-12-22T19:30:11.231Z,222.13
2018-12-22T19:32:39.300Z,172.73
2018-12-22T19:35:07.365Z,138.47
2018-12-22T19:37:35.532Z,116.33
2018-12-22T19:40:04.058Z,107.27
2018-12-22T19:42:32.278Z,116.83
2018-12-22T19:45:00.176Z,112.10
2018-12-22T19:47:28.395Z,103.30
2018-12-22T19:49:56.552Z,97.13
2018-12-22T19:52:24.859Z,83.73
2018-12-22T19:54:52.874Z,72.00
2018-12-22T19:57:20.894Z,64.03
2018-12-22T19:59:48.914Z,68.63
2018-12-22T20:02:17.180Z,66.23
2018-12-22T20:04:45.130Z,58.10
2018-12-22T20:07:13.144Z,68.20
2018-12-22T20:09:41.260Z,90.67
2018-12-22T20:12:09.514Z,92.30
2018-12-22T20:14:37.775Z,96.03
2018-12-22T20:17:05.919Z,89.27
2018-12-22T20:19:34.071Z,88.50
2018-12-22T20:22:02.293Z,87.40
2018-12-22T20:24:30.556Z,103.37
2018-12-22T20:26:58.686Z,196.80
2018-12-22T20:29:26.724Z,158.00
2018-12-22T20:31:54.761Z,143.40
2018-12-22T20:34:22.789Z,133.30
2018-12-22T20:36:50.911Z,123.27
2018-12-22T20:39:18.972Z,112.67
2018-12-22T20:41:47.176Z,115.10
2018-12-22T20:44:15.366Z,111.30
2018-12-22T20:46:43.631Z,119.30
2018-12-22T20:49:11.683Z,119.47
2018-12-22T20:51:39.914Z,122.40
2018-12-22T20:54:08.146Z,190.00
2018-12-22T20:56:36.314Z,144.30
2018-12-22T20:59:04.389Z,139.03
2018-12-22T21:01:32.707Z,179.60
2018-12-22T21:04:01.027Z,136.60
2018-12-22T21:06:32.784Z,143.77
2018-12-22T21:09:00.980Z,128.57
2018-12-22T21:11:29.248Z,120.87
2018-12-22T21:13:57.432Z,115.77
2018-12-22T21:16:25.739Z,130.17
2018-12-22T21:18:53.859Z,344.20
2018-12-22T21:21:21.825Z,225.03
2018-12-22T21:23:49.921Z,198.97
2018-12-22T21:26:18.118Z,158.90
2018-12-22T21:28:46.287Z,148.50
2018-12-22T21:31:14.500Z,134.47
2018-12-22T21:33:42.520Z,173.57
2018-12-22T21:36:10.797Z,268.33
2018-12-22T21:38:38.959Z,234.30
2018-12-22T21:41:07.080Z,184.93
2018-12-22T21:43:35.130Z,191.77
2018-12-22T21:46:03.275Z,180.77
2018-12-22T21:48:31.294Z,164.33
2018-12-22T21:50:59.460Z,148.47
2018-12-22T21:53:27.552Z,154.20
2018-12-22T21:55:55.753Z,159.73
2018-12-22T21:58:24.026Z,146.93
2018-12-22T22:00:52.178Z,136.10
2018-12-22T22:03:20.313Z,144.33
2018-12-22T22:05:48.533Z,122.57
2018-12-22T22:08:16.525Z,97.93
2018-12-22T22:10:44.683Z,95.90
2018-12-22T22:13:12.892Z,92.60
2018-12-22T22:15:40.857Z,100.03
2018-12-22T22:18:08.955Z,140.43
2018-12-22T22:20:37.196Z,109.93
2018-12-22T22:23:05.208Z,101.67
2018-12-22T22:25:33.337Z,119.03
2018-12-22T22:28:01.509Z,87.27
2018-12-22T22:30:29.431Z,103.07
2018-12-22T22:32:57.748Z,105.90
2018-12-22T22:35:25.667Z,75.50
2018-12-22T22:37:53.720Z,92.13
2018-12-22T22:40:22.009Z,105.63
2018-12-22T22:42:50.127Z,86.97
2018-12-22T22:45:18.456Z,80.80
2018-12-22T22:47:46.515Z,64.53
2018-12-22T22:50:14.688Z,67.30
2018-12-22T22:52:42.806Z,74.30
2018-12-22T22:55:10.926Z,70.77
2018-12-22T22:57:39.192Z,58.13
2018-12-22T23:00:10.677Z,73.53
2018-12-22T23:02:38.896Z,62.17
2018-12-22T23:05:07.217Z,60.60
2018-12-22T23:07:35.274Z,94.23
2018-12-22T23:10:03.556Z,76.17
2018-12-22T23:12:31.620Z,59.13
2018-12-22T23:14:59.640Z,90.03
2018-12-22T23:17:27.848Z,87.87
2018-12-22T23:19:56.034Z,85.57
2018-12-22T23:22:24.201Z,118.13
2018-12-22T23:24:52.245Z,157.67
2018-12-22T23:27:20.322Z,70.17
2018-12-22T23:29:48.611Z,79.97
2018-12-22T23:32:16.677Z,77.37
2018-12-22T23:34:44.872Z,101.40
2018-12-22T23:37:12.976Z,90.37
2018-12-22T23:39:41.191Z,81.10
2018-12-22T23:42:09.257Z,115.23
2018-12-22T23:44:37.475Z,89.23
2018-12-22T23:47:05.529Z,64.80
2018-12-22T23:49:33.663Z,59.83
2018-12-22T23:52:01.938Z,120.50
2018-12-22T23:54:29.916Z,73.47
2018-12-22T23:56:58.172Z,56.97
2018-12-22T23:59:26.325Z,70.80
